<?xml version="1.0" encoding="UTF-8" standalone="no" ?>
<gpx xmlns="http://www.topografix.com/GPX/1/1" creator="MapSource 6.11.6" version="1.1" xmlns:xsi="http://www.w3.org/2001/XMLSchema-instance" xsi:schemaLocation="http://www.topografix.com/GPX/1/1 http://www.topografix.com/GPX/1/1/gpx.xsd">

  <metadata>
    <link href="http://www.garmin.com">
      <text>Garmin International</text>
    </link>
    <time>2009-11-02T20:32:15Z</time>
    <bounds maxlat="50.657201" maxlon="6.416123" minlat="50.639508" minlon="6.394994"/>
  </metadata>

  <trk>
    <name>Lederbach - Rursee</name>
    <extensions>
      <gpxx:TrackExtension xmlns:gpxx="http://www.garmin.com/xmlschemas/GpxExtensions/v3" xmlns:xsi="http://www.w3.org/2001/XMLSchema-instance" xsi:schemaLocation="http://www.garmin.com/xmlschemas/GpxExtensions/v3 http://www.garmin.com/xmlschemas/GpxExtensions/v3/GpxExtensionsv3.xsd">
        <gpxx:DisplayColor>White</gpxx:DisplayColor>
      </gpxx:TrackExtension>
    </extensions>
    <trkseg>
      <trkpt lat="50.656558" lon="6.414210">
        <ele>454.400000</ele>
        <time>2009-11-02T21:32:35Z</time>
      </trkpt>
      <trkpt lat="50.656122" lon="6.415793">
        <ele>451.500000</ele>
        <time>2009-11-02T21:33:59Z</time>
      </trkpt>
      <trkpt lat="50.655951" lon="6.416052">
        <ele>450.500000</ele>
        <time>2009-11-02T21:34:17Z</time>
      </trkpt>
      <trkpt lat="50.655874" lon="6.416123">
        <ele>450.500000</ele>
        <time>2009-11-02T21:34:24Z</time>
      </trkpt>
      <trkpt lat="50.655634" lon="6.416080">
        <ele>451.500000</ele>
        <time>2009-11-02T21:34:42Z</time>
      </trkpt>
      <trkpt lat="50.655517" lon="6.416006">
        <ele>452.000000</ele>
        <time>2009-11-02T21:34:52Z</time>
      </trkpt>
      <trkpt lat="50.655441" lon="6.415900">
        <ele>452.400000</ele>
        <time>2009-11-02T21:35:00Z</time>
      </trkpt>
      <trkpt lat="50.655127" lon="6.415243">
        <ele>451.500000</ele>
        <time>2009-11-02T21:35:40Z</time>
      </trkpt>
      <trkpt lat="50.654092" lon="6.413789">
        <ele>453.400000</ele>
        <time>2009-11-02T21:37:26Z</time>
      </trkpt>
      <trkpt lat="50.654040" lon="6.413665">
        <ele>452.900000</ele>
        <time>2009-11-02T21:37:34Z</time>
      </trkpt>
      <trkpt lat="50.654190" lon="6.413402">
        <ele>451.500000</ele>
        <time>2009-11-02T21:37:51Z</time>
      </trkpt>
      <trkpt lat="50.654387" lon="6.413204">
        <ele>451.000000</ele>
        <time>2009-11-02T21:38:09Z</time>
      </trkpt>
      <trkpt lat="50.654500" lon="6.413181">
        <ele>450.500000</ele>
        <time>2009-11-02T21:38:18Z</time>
      </trkpt>
      <trkpt lat="50.654798" lon="6.412891">
        <ele>445.700000</ele>
        <time>2009-11-02T21:38:45Z</time>
      </trkpt>
      <trkpt lat="50.655038" lon="6.412685">
        <ele>442.300000</ele>
        <time>2009-11-02T21:39:06Z</time>
      </trkpt>
      <trkpt lat="50.655186" lon="6.412494">
        <ele>439.500000</ele>
        <time>2009-11-02T21:39:20Z</time>
      </trkpt>
      <trkpt lat="50.655225" lon="6.412349">
        <ele>437.500000</ele>
        <time>2009-11-02T21:39:28Z</time>
      </trkpt>
      <trkpt lat="50.655140" lon="6.412270">
        <ele>434.700000</ele>
        <time>2009-11-02T21:39:35Z</time>
      </trkpt>
      <trkpt lat="50.654872" lon="6.412022">
        <ele>428.900000</ele>
        <time>2009-11-02T21:39:59Z</time>
      </trkpt>
      <trkpt lat="50.654775" lon="6.411940">
        <ele>426.500000</ele>
        <time>2009-11-02T21:40:08Z</time>
      </trkpt>
      <trkpt lat="50.654512" lon="6.411585">
        <ele>419.800000</ele>
        <time>2009-11-02T21:40:34Z</time>
      </trkpt>
      <trkpt lat="50.654124" lon="6.411383">
        <ele>412.500000</ele>
        <time>2009-11-02T21:41:06Z</time>
      </trkpt>
      <trkpt lat="50.654008" lon="6.411330">
        <ele>410.100000</ele>
        <time>2009-11-02T21:41:15Z</time>
      </trkpt>
      <trkpt lat="50.653924" lon="6.411236">
        <ele>408.200000</ele>
        <time>2009-11-02T21:41:23Z</time>
      </trkpt>
      <trkpt lat="50.653697" lon="6.410884">
        <ele>402.900000</ele>
        <time>2009-11-02T21:41:48Z</time>
      </trkpt>
      <trkpt lat="50.652499" lon="6.409672">
        <ele>382.700000</ele>
        <time>2009-11-02T21:43:37Z</time>
      </trkpt>
      <trkpt lat="50.651901" lon="6.408976">
        <ele>370.700000</ele>
        <time>2009-11-02T21:44:34Z</time>
      </trkpt>
      <trkpt lat="50.651646" lon="6.408589">
        <ele>366.400000</ele>
        <time>2009-11-02T21:45:01Z</time>
      </trkpt>
      <trkpt lat="50.651325" lon="6.408366">
        <ele>362.600000</ele>
        <time>2009-11-02T21:45:28Z</time>
      </trkpt>
      <trkpt lat="50.650097" lon="6.407772">
        <ele>347.700000</ele>
        <time>2009-11-02T21:47:07Z</time>
      </trkpt>
      <trkpt lat="50.649814" lon="6.407524">
        <ele>346.200000</ele>
        <time>2009-11-02T21:47:32Z</time>
      </trkpt>
      <trkpt lat="50.649304" lon="6.407010">
        <ele>342.400000</ele>
        <time>2009-11-02T21:48:18Z</time>
      </trkpt>
      <trkpt lat="50.649243" lon="6.406781">
        <ele>342.400000</ele>
        <time>2009-11-02T21:48:31Z</time>
      </trkpt>
      <trkpt lat="50.649337" lon="6.406220">
        <ele>340.000000</ele>
        <time>2009-11-02T21:48:59Z</time>
      </trkpt>
      <trkpt lat="50.649390" lon="6.406060">
        <ele>340.400000</ele>
        <time>2009-11-02T21:49:08Z</time>
      </trkpt>
      <trkpt lat="50.649450" lon="6.405765">
        <ele>342.400000</ele>
        <time>2009-11-02T21:49:23Z</time>
      </trkpt>
      <trkpt lat="50.649505" lon="6.405663">
        <ele>341.900000</ele>
        <time>2009-11-02T21:49:29Z</time>
      </trkpt>
      <trkpt lat="50.649667" lon="6.405544">
        <ele>341.400000</ele>
        <time>2009-11-02T21:49:43Z</time>
      </trkpt>
      <trkpt lat="50.649839" lon="6.405393">
        <ele>341.900000</ele>
        <time>2009-11-02T21:49:58Z</time>
      </trkpt>
      <trkpt lat="50.650018" lon="6.405204">
        <ele>344.300000</ele>
        <time>2009-11-02T21:50:15Z</time>
      </trkpt>
      <trkpt lat="50.649984" lon="6.405076">
        <ele>349.600000</ele>
        <time>2009-11-02T21:50:21Z</time>
      </trkpt>
      <trkpt lat="50.649600" lon="6.404996">
        <ele>352.900000</ele>
        <time>2009-11-02T21:50:51Z</time>
      </trkpt>
      <trkpt lat="50.649461" lon="6.405107">
        <ele>351.000000</ele>
        <time>2009-11-02T21:51:03Z</time>
      </trkpt>
      <trkpt lat="50.648965" lon="6.405662">
        <ele>342.400000</ele>
        <time>2009-11-02T21:51:50Z</time>
      </trkpt>
      <trkpt lat="50.648364" lon="6.406913">
        <ele>329.900000</ele>
        <time>2009-11-02T21:53:06Z</time>
      </trkpt>
      <trkpt lat="50.647431" lon="6.408818">
        <ele>314.000000</ele>
        <time>2009-11-02T21:55:04Z</time>
      </trkpt>
      <trkpt lat="50.646408" lon="6.411237">
        <ele>313.500000</ele>
        <time>2009-11-02T21:57:25Z</time>
      </trkpt>
      <trkpt lat="50.646297" lon="6.411229">
        <ele>313.000000</ele>
        <time>2009-11-02T21:57:34Z</time>
      </trkpt>
      <trkpt lat="50.646200" lon="6.411144">
        <ele>312.600000</ele>
        <time>2009-11-02T21:57:43Z</time>
      </trkpt>
      <trkpt lat="50.645983" lon="6.410841">
        <ele>309.700000</ele>
        <time>2009-11-02T21:58:05Z</time>
      </trkpt>
      <trkpt lat="50.645135" lon="6.410109">
        <ele>304.900000</ele>
        <time>2009-11-02T21:59:19Z</time>
      </trkpt>
      <trkpt lat="50.644830" lon="6.410012">
        <ele>304.400000</ele>
        <time>2009-11-02T21:59:43Z</time>
      </trkpt>
      <trkpt lat="50.644633" lon="6.409850">
        <ele>304.900000</ele>
        <time>2009-11-02T22:00:00Z</time>
      </trkpt>
      <trkpt lat="50.644408" lon="6.409715">
        <ele>304.900000</ele>
        <time>2009-11-02T22:00:19Z</time>
      </trkpt>
      <trkpt lat="50.644105" lon="6.409559">
        <ele>305.400000</ele>
        <time>2009-11-02T22:00:43Z</time>
      </trkpt>
      <trkpt lat="50.643922" lon="6.409508">
        <ele>305.400000</ele>
        <time>2009-11-02T22:00:57Z</time>
      </trkpt>
      <trkpt lat="50.643114" lon="6.409523">
        <ele>306.300000</ele>
        <time>2009-11-02T22:02:00Z</time>
      </trkpt>
      <trkpt lat="50.643021" lon="6.409440">
        <ele>306.300000</ele>
        <time>2009-11-02T22:02:08Z</time>
      </trkpt>
      <trkpt lat="50.642991" lon="6.409334">
        <ele>306.800000</ele>
        <time>2009-11-02T22:02:13Z</time>
      </trkpt>
      <trkpt lat="50.643012" lon="6.408277">
        <ele>306.300000</ele>
        <time>2009-11-02T22:03:05Z</time>
      </trkpt>
      <trkpt lat="50.643142" lon="6.407788">
        <ele>305.400000</ele>
        <time>2009-11-02T22:03:31Z</time>
      </trkpt>
      <trkpt lat="50.643159" lon="6.407631">
        <ele>305.400000</ele>
        <time>2009-11-02T22:03:39Z</time>
      </trkpt>
      <trkpt lat="50.643105" lon="6.407477">
        <ele>305.400000</ele>
        <time>2009-11-02T22:03:47Z</time>
      </trkpt>
      <trkpt lat="50.642771" lon="6.407082">
        <ele>304.400000</ele>
        <time>2009-11-02T22:04:19Z</time>
      </trkpt>
      <trkpt lat="50.642443" lon="6.406487">
        <ele>303.400000</ele>
        <time>2009-11-02T22:04:58Z</time>
      </trkpt>
      <trkpt lat="50.642176" lon="6.405801">
        <ele>303.400000</ele>
        <time>2009-11-02T22:05:37Z</time>
      </trkpt>
      <trkpt lat="50.641832" lon="6.404997">
        <ele>303.400000</ele>
        <time>2009-11-02T22:06:24Z</time>
      </trkpt>
      <trkpt lat="50.641631" lon="6.404588">
        <ele>303.000000</ele>
        <time>2009-11-02T22:06:50Z</time>
      </trkpt>
      <trkpt lat="50.641420" lon="6.404439">
        <ele>303.400000</ele>
        <time>2009-11-02T22:07:07Z</time>
      </trkpt>
      <trkpt lat="50.641197" lon="6.404342">
        <ele>303.400000</ele>
        <time>2009-11-02T22:07:25Z</time>
      </trkpt>
      <trkpt lat="50.640744" lon="6.404267">
        <ele>303.900000</ele>
        <time>2009-11-02T22:08:00Z</time>
      </trkpt>
      <trkpt lat="50.640608" lon="6.404350">
        <ele>303.400000</ele>
        <time>2009-11-02T22:08:11Z</time>
      </trkpt>
      <trkpt lat="50.640439" lon="6.404504">
        <ele>302.500000</ele>
        <time>2009-11-02T22:08:26Z</time>
      </trkpt>
      <trkpt lat="50.640080" lon="6.404642">
        <ele>302.000000</ele>
        <time>2009-11-02T22:08:55Z</time>
      </trkpt>
      <trkpt lat="50.639962" lon="6.404654">
        <ele>302.000000</ele>
        <time>2009-11-02T22:09:04Z</time>
      </trkpt>
      <trkpt lat="50.639649" lon="6.404636">
        <ele>301.500000</ele>
        <time>2009-11-02T22:09:28Z</time>
      </trkpt>
      <trkpt lat="50.639554" lon="6.404608">
        <ele>302.000000</ele>
        <time>2009-11-02T22:09:35Z</time>
      </trkpt>
      <trkpt lat="50.639508" lon="6.404506">
        <ele>302.000000</ele>
        <time>2009-11-02T22:09:41Z</time>
      </trkpt>
      <trkpt lat="50.639550" lon="6.404385">
        <ele>302.000000</ele>
        <time>2009-11-02T22:09:48Z</time>
      </trkpt>
      <trkpt lat="50.639633" lon="6.404307">
        <ele>302.500000</ele>
        <time>2009-11-02T22:09:56Z</time>
      </trkpt>
      <trkpt lat="50.639834" lon="6.404194">
        <ele>302.500000</ele>
        <time>2009-11-02T22:10:12Z</time>
      </trkpt>
      <trkpt lat="50.639989" lon="6.403936">
        <ele>302.500000</ele>
        <time>2009-11-02T22:10:29Z</time>
      </trkpt>
      <trkpt lat="50.640125" lon="6.403639">
        <ele>303.000000</ele>
        <time>2009-11-02T22:10:47Z</time>
      </trkpt>
      <trkpt lat="50.640376" lon="6.403282">
        <ele>302.500000</ele>
        <time>2009-11-02T22:11:13Z</time>
      </trkpt>
      <trkpt lat="50.640581" lon="6.402855">
        <ele>302.000000</ele>
        <time>2009-11-02T22:11:39Z</time>
      </trkpt>
      <trkpt lat="50.640819" lon="6.402485">
        <ele>302.500000</ele>
        <time>2009-11-02T22:12:05Z</time>
      </trkpt>
      <trkpt lat="50.640996" lon="6.402302">
        <ele>303.000000</ele>
        <time>2009-11-02T22:12:21Z</time>
      </trkpt>
      <trkpt lat="50.641092" lon="6.402251">
        <ele>302.500000</ele>
        <time>2009-11-02T22:12:29Z</time>
      </trkpt>
      <trkpt lat="50.641206" lon="6.402233">
        <ele>302.500000</ele>
        <time>2009-11-02T22:12:38Z</time>
      </trkpt>
      <trkpt lat="50.641302" lon="6.402269">
        <ele>302.500000</ele>
        <time>2009-11-02T22:12:45Z</time>
      </trkpt>
      <trkpt lat="50.642087" lon="6.402932">
        <ele>301.500000</ele>
        <time>2009-11-02T22:13:54Z</time>
      </trkpt>
      <trkpt lat="50.642214" lon="6.402908">
        <ele>301.500000</ele>
        <time>2009-11-02T22:14:04Z</time>
      </trkpt>
      <trkpt lat="50.642334" lon="6.402929">
        <ele>302.000000</ele>
        <time>2009-11-02T22:14:13Z</time>
      </trkpt>
      <trkpt lat="50.642724" lon="6.403122">
        <ele>303.900000</ele>
        <time>2009-11-02T22:14:44Z</time>
      </trkpt>
      <trkpt lat="50.643140" lon="6.403224">
        <ele>308.700000</ele>
        <time>2009-11-02T22:15:17Z</time>
      </trkpt>
      <trkpt lat="50.643416" lon="6.403259">
        <ele>311.100000</ele>
        <time>2009-11-02T22:15:38Z</time>
      </trkpt>
      <trkpt lat="50.643551" lon="6.403220">
        <ele>312.100000</ele>
        <time>2009-11-02T22:15:49Z</time>
      </trkpt>
      <trkpt lat="50.643909" lon="6.402653">
        <ele>315.900000</ele>
        <time>2009-11-02T22:16:28Z</time>
      </trkpt>
      <trkpt lat="50.643977" lon="6.402276">
        <ele>316.900000</ele>
        <time>2009-11-02T22:16:47Z</time>
      </trkpt>
      <trkpt lat="50.644059" lon="6.401969">
        <ele>319.800000</ele>
        <time>2009-11-02T22:17:03Z</time>
      </trkpt>
      <trkpt lat="50.644125" lon="6.401855">
        <ele>320.700000</ele>
        <time>2009-11-02T22:17:10Z</time>
      </trkpt>
      <trkpt lat="50.644125" lon="6.401683">
        <ele>321.700000</ele>
        <time>2009-11-02T22:17:19Z</time>
      </trkpt>
      <trkpt lat="50.644037" lon="6.401407">
        <ele>323.600000</ele>
        <time>2009-11-02T22:17:34Z</time>
      </trkpt>
      <trkpt lat="50.643988" lon="6.401102">
        <ele>325.500000</ele>
        <time>2009-11-02T22:17:49Z</time>
      </trkpt>
      <trkpt lat="50.643956" lon="6.400291">
        <ele>329.900000</ele>
        <time>2009-11-02T22:18:29Z</time>
      </trkpt>
      <trkpt lat="50.644364" lon="6.399015">
        <ele>337.100000</ele>
        <time>2009-11-02T22:19:38Z</time>
      </trkpt>
      <trkpt lat="50.644559" lon="6.398551">
        <ele>339.500000</ele>
        <time>2009-11-02T22:20:06Z</time>
      </trkpt>
      <trkpt lat="50.644613" lon="6.398217">
        <ele>341.900000</ele>
        <time>2009-11-02T22:20:22Z</time>
      </trkpt>
      <trkpt lat="50.644618" lon="6.398063">
        <ele>342.800000</ele>
        <time>2009-11-02T22:20:30Z</time>
      </trkpt>
      <trkpt lat="50.644505" lon="6.397464">
        <ele>347.200000</ele>
        <time>2009-11-02T22:21:00Z</time>
      </trkpt>
      <trkpt lat="50.644520" lon="6.397269">
        <ele>348.600000</ele>
        <time>2009-11-02T22:21:10Z</time>
      </trkpt>
      <trkpt lat="50.644593" lon="6.396922">
        <ele>351.500000</ele>
        <time>2009-11-02T22:21:28Z</time>
      </trkpt>
      <trkpt lat="50.644661" lon="6.396808">
        <ele>352.500000</ele>
        <time>2009-11-02T22:21:35Z</time>
      </trkpt>
      <trkpt lat="50.644747" lon="6.396718">
        <ele>353.400000</ele>
        <time>2009-11-02T22:21:43Z</time>
      </trkpt>
      <trkpt lat="50.644844" lon="6.396731">
        <ele>354.400000</ele>
        <time>2009-11-02T22:21:51Z</time>
      </trkpt>
      <trkpt lat="50.645086" lon="6.397241">
        <ele>356.300000</ele>
        <time>2009-11-02T22:22:22Z</time>
      </trkpt>
      <trkpt lat="50.645322" lon="6.398114">
        <ele>358.700000</ele>
        <time>2009-11-02T22:23:08Z</time>
      </trkpt>
      <trkpt lat="50.645551" lon="6.398829">
        <ele>361.100000</ele>
        <time>2009-11-02T22:23:47Z</time>
      </trkpt>
      <trkpt lat="50.645534" lon="6.399022">
        <ele>360.600000</ele>
        <time>2009-11-02T22:23:57Z</time>
      </trkpt>
      <trkpt lat="50.645645" lon="6.399493">
        <ele>362.100000</ele>
        <time>2009-11-02T22:24:21Z</time>
      </trkpt>
      <trkpt lat="50.646241" lon="6.400664">
        <ele>372.200000</ele>
        <time>2009-11-02T22:25:34Z</time>
      </trkpt>
      <trkpt lat="50.646404" lon="6.401092">
        <ele>376.000000</ele>
        <time>2009-11-02T22:25:59Z</time>
      </trkpt>
      <trkpt lat="50.646439" lon="6.401253">
        <ele>377.500000</ele>
        <time>2009-11-02T22:26:07Z</time>
      </trkpt>
      <trkpt lat="50.646478" lon="6.401769">
        <ele>380.800000</ele>
        <time>2009-11-02T22:26:32Z</time>
      </trkpt>
      <trkpt lat="50.646582" lon="6.402386">
        <ele>384.200000</ele>
        <time>2009-11-02T22:27:03Z</time>
      </trkpt>
      <trkpt lat="50.646526" lon="6.404883">
        <ele>396.200000</ele>
        <time>2009-11-02T22:29:05Z</time>
      </trkpt>
      <trkpt lat="50.646488" lon="6.405062">
        <ele>397.200000</ele>
        <time>2009-11-02T22:29:14Z</time>
      </trkpt>
      <trkpt lat="50.646487" lon="6.405245">
        <ele>397.600000</ele>
        <time>2009-11-02T22:29:23Z</time>
      </trkpt>
      <trkpt lat="50.646584" lon="6.405620">
        <ele>398.100000</ele>
        <time>2009-11-02T22:29:43Z</time>
      </trkpt>
      <trkpt lat="50.646573" lon="6.405948">
        <ele>397.600000</ele>
        <time>2009-11-02T22:29:59Z</time>
      </trkpt>
      <trkpt lat="50.646623" lon="6.406057">
        <ele>398.100000</ele>
        <time>2009-11-02T22:30:06Z</time>
      </trkpt>
      <trkpt lat="50.646657" lon="6.406196">
        <ele>398.600000</ele>
        <time>2009-11-02T22:30:13Z</time>
      </trkpt>
      <trkpt lat="50.646734" lon="6.406297">
        <ele>399.100000</ele>
        <time>2009-11-02T22:30:21Z</time>
      </trkpt>
      <trkpt lat="50.646821" lon="6.406260">
        <ele>399.100000</ele>
        <time>2009-11-02T22:30:28Z</time>
      </trkpt>
      <trkpt lat="50.647151" lon="6.405594">
        <ele>400.000000</ele>
        <time>2009-11-02T22:31:09Z</time>
      </trkpt>
      <trkpt lat="50.647234" lon="6.405469">
        <ele>400.500000</ele>
        <time>2009-11-02T22:31:18Z</time>
      </trkpt>
      <trkpt lat="50.647301" lon="6.405308">
        <ele>401.000000</ele>
        <time>2009-11-02T22:31:27Z</time>
      </trkpt>
      <trkpt lat="50.647345" lon="6.404943">
        <ele>402.400000</ele>
        <time>2009-11-02T22:31:45Z</time>
      </trkpt>
      <trkpt lat="50.647449" lon="6.404665">
        <ele>403.400000</ele>
        <time>2009-11-02T22:32:01Z</time>
      </trkpt>
      <trkpt lat="50.648393" lon="6.404175">
        <ele>410.600000</ele>
        <time>2009-11-02T22:33:17Z</time>
      </trkpt>
      <trkpt lat="50.648554" lon="6.403993">
        <ele>412.100000</ele>
        <time>2009-11-02T22:33:32Z</time>
      </trkpt>
      <trkpt lat="50.648704" lon="6.403727">
        <ele>414.000000</ele>
        <time>2009-11-02T22:33:50Z</time>
      </trkpt>
      <trkpt lat="50.648975" lon="6.403384">
        <ele>416.400000</ele>
        <time>2009-11-02T22:34:17Z</time>
      </trkpt>
      <trkpt lat="50.649208" lon="6.403216">
        <ele>418.800000</ele>
        <time>2009-11-02T22:34:36Z</time>
      </trkpt>
      <trkpt lat="50.649620" lon="6.402856">
        <ele>424.600000</ele>
        <time>2009-11-02T22:35:12Z</time>
      </trkpt>
      <trkpt lat="50.649770" lon="6.402653">
        <ele>426.500000</ele>
        <time>2009-11-02T22:35:28Z</time>
      </trkpt>
      <trkpt lat="50.650522" lon="6.402098">
        <ele>434.200000</ele>
        <time>2009-11-02T22:36:31Z</time>
      </trkpt>
      <trkpt lat="50.650853" lon="6.401966">
        <ele>437.500000</ele>
        <time>2009-11-02T22:36:58Z</time>
      </trkpt>
      <trkpt lat="50.651040" lon="6.401806">
        <ele>439.500000</ele>
        <time>2009-11-02T22:37:14Z</time>
      </trkpt>
      <trkpt lat="50.651197" lon="6.401581">
        <ele>441.400000</ele>
        <time>2009-11-02T22:37:30Z</time>
      </trkpt>
      <trkpt lat="50.651267" lon="6.401414">
        <ele>442.800000</ele>
        <time>2009-11-02T22:37:40Z</time>
      </trkpt>
      <trkpt lat="50.651377" lon="6.401109">
        <ele>444.300000</ele>
        <time>2009-11-02T22:37:57Z</time>
      </trkpt>
      <trkpt lat="50.651437" lon="6.400833">
        <ele>445.700000</ele>
        <time>2009-11-02T22:38:11Z</time>
      </trkpt>
      <trkpt lat="50.651491" lon="6.400223">
        <ele>447.200000</ele>
        <time>2009-11-02T22:38:41Z</time>
      </trkpt>
      <trkpt lat="50.651484" lon="6.399896">
        <ele>448.100000</ele>
        <time>2009-11-02T22:38:57Z</time>
      </trkpt>
      <trkpt lat="50.651356" lon="6.398497">
        <ele>456.300000</ele>
        <time>2009-11-02T22:40:06Z</time>
      </trkpt>
      <trkpt lat="50.651357" lon="6.397690">
        <ele>460.600000</ele>
        <time>2009-11-02T22:40:46Z</time>
      </trkpt>
      <trkpt lat="50.651464" lon="6.396584">
        <ele>467.800000</ele>
        <time>2009-11-02T22:41:40Z</time>
      </trkpt>
      <trkpt lat="50.651795" lon="6.395774">
        <ele>473.100000</ele>
        <time>2009-11-02T22:42:27Z</time>
      </trkpt>
      <trkpt lat="50.652177" lon="6.394994">
        <ele>476.500000</ele>
        <time>2009-11-02T22:43:15Z</time>
      </trkpt>
      <trkpt lat="50.652486" lon="6.395088">
        <ele>471.700000</ele>
        <time>2009-11-02T22:43:39Z</time>
      </trkpt>
      <trkpt lat="50.652598" lon="6.395199">
        <ele>470.700000</ele>
        <time>2009-11-02T22:43:50Z</time>
      </trkpt>
      <trkpt lat="50.652873" lon="6.395562">
        <ele>470.700000</ele>
        <time>2009-11-02T22:44:17Z</time>
      </trkpt>
      <trkpt lat="50.653176" lon="6.396121">
        <ele>471.200000</ele>
        <time>2009-11-02T22:44:53Z</time>
      </trkpt>
      <trkpt lat="50.653686" lon="6.397224">
        <ele>471.200000</ele>
        <time>2009-11-02T22:45:59Z</time>
      </trkpt>
      <trkpt lat="50.654233" lon="6.398301">
        <ele>472.600000</ele>
        <time>2009-11-02T22:47:07Z</time>
      </trkpt>
      <trkpt lat="50.654814" lon="6.399401">
        <ele>473.100000</ele>
        <time>2009-11-02T22:48:17Z</time>
      </trkpt>
      <trkpt lat="50.655232" lon="6.399913">
        <ele>473.100000</ele>
        <time>2009-11-02T22:48:57Z</time>
      </trkpt>
      <trkpt lat="50.656218" lon="6.400680">
        <ele>473.600000</ele>
        <time>2009-11-02T22:50:22Z</time>
      </trkpt>
      <trkpt lat="50.656532" lon="6.401071">
        <ele>475.000000</ele>
        <time>2009-11-02T22:50:52Z</time>
      </trkpt>
      <trkpt lat="50.656765" lon="6.401660">
        <ele>476.000000</ele>
        <time>2009-11-02T22:51:26Z</time>
      </trkpt>
      <trkpt lat="50.657195" lon="6.403837">
        <ele>474.500000</ele>
        <time>2009-11-02T22:53:17Z</time>
      </trkpt>
      <trkpt lat="50.657201" lon="6.404045">
        <ele>474.500000</ele>
        <time>2009-11-02T22:53:28Z</time>
      </trkpt>
      <trkpt lat="50.657167" lon="6.404456">
        <ele>474.500000</ele>
        <time>2009-11-02T22:53:48Z</time>
      </trkpt>
      <trkpt lat="50.657137" lon="6.404664">
        <ele>473.100000</ele>
        <time>2009-11-02T22:53:58Z</time>
      </trkpt>
      <trkpt lat="50.656856" lon="6.405891">
        <ele>469.300000</ele>
        <time>2009-11-02T22:55:02Z</time>
      </trkpt>
      <trkpt lat="50.656602" lon="6.407124">
        <ele>468.800000</ele>
        <time>2009-11-02T22:56:05Z</time>
      </trkpt>
      <trkpt lat="50.656076" lon="6.406900">
        <ele>465.900000</ele>
        <time>2009-11-02T22:56:47Z</time>
      </trkpt>
      <trkpt lat="50.655982" lon="6.406958">
        <ele>465.400000</ele>
        <time>2009-11-02T22:56:55Z</time>
      </trkpt>
      <trkpt lat="50.655906" lon="6.407423">
        <ele>466.900000</ele>
        <time>2009-11-02T22:57:18Z</time>
      </trkpt>
      <trkpt lat="50.655788" lon="6.408865">
        <ele>463.500000</ele>
        <time>2009-11-02T22:58:29Z</time>
      </trkpt>
      <trkpt lat="50.655778" lon="6.409391">
        <ele>459.600000</ele>
        <time>2009-11-02T22:58:54Z</time>
      </trkpt>
      <trkpt lat="50.655802" lon="6.409599">
        <ele>457.700000</ele>
        <time>2009-11-02T22:59:05Z</time>
      </trkpt>
      <trkpt lat="50.655889" lon="6.411457">
        <ele>447.600000</ele>
        <time>2009-11-02T23:00:36Z</time>
      </trkpt>
      <trkpt lat="50.655824" lon="6.412238">
        <ele>446.200000</ele>
        <time>2009-11-02T23:01:14Z</time>
      </trkpt>
      <trkpt lat="50.655693" lon="6.412947">
        <ele>446.700000</ele>
        <time>2009-11-02T23:01:50Z</time>
      </trkpt>
      <trkpt lat="50.655724" lon="6.413113">
        <ele>447.200000</ele>
        <time>2009-11-02T23:01:58Z</time>
      </trkpt>
      <trkpt lat="50.656246" lon="6.413420">
        <ele>448.600000</ele>
        <time>2009-11-02T23:02:41Z</time>
      </trkpt>
    </trkseg>
  </trk>

</gpx>
